createdAt,value
2023-02-09T00:00:38.770Z,9.73
2023-02-09T00:03:07.276Z,10.00
2023-02-09T00:05:35.858Z,9.53
2023-02-09T00:08:04.326Z,9.30
2023-02-09T00:10:32.789Z,9.67
2023-02-09T00:13:20.116Z,9.17
2023-02-09T00:15:50.046Z,8.47
2023-02-09T00:18:18.489Z,9.13
2023-02-09T00:20:47.150Z,8.17
2023-02-09T00:23:15.663Z,8.50
2023-02-09T00:25:44.172Z,8.63
2023-02-09T00:28:14.207Z,9.27
2023-02-09T00:30:42.850Z,8.93
2023-02-09T00:33:11.488Z,8.70
2023-02-09T00:35:41.628Z,8.97
2023-02-09T00:38:10.233Z,9.07
2023-02-09T00:40:39.381Z,8.83
2023-02-09T00:43:07.987Z,8.87
2023-02-09T00:45:37.944Z,8.63
2023-02-09T00:48:06.561Z,8.73
2023-02-09T00:50:35.073Z,9.53
2023-02-09T00:53:03.785Z,8.10
2023-02-09T00:55:32.289Z,8.87
2023-02-09T00:58:01.256Z,8.50
2023-02-09T01:00:30.730Z,8.03
2023-02-09T01:03:01.558Z,8.57
2023-02-09T01:05:30.299Z,8.33
2023-02-09T01:07:59.054Z,8.40
2023-02-09T01:10:27.542Z,8.83
2023-02-09T01:12:56.255Z,8.90
2023-02-09T01:15:25.002Z,8.20
2023-02-09T01:17:53.588Z,8.20
2023-02-09T01:20:23.378Z,9.47
2023-02-09T01:22:51.892Z,8.53
2023-02-09T01:25:20.504Z,8.60
2023-02-09T01:27:49.308Z,8.83
2023-02-09T01:30:18.140Z,8.10
2023-02-09T01:32:46.760Z,7.90
2023-02-09T01:35:15.243Z,8.57
2023-02-09T01:37:45.222Z,8.63
2023-02-09T01:40:13.979Z,8.50
2023-02-09T01:42:42.506Z,8.53
2023-02-09T01:45:21.161Z,8.30
2023-02-09T01:47:52.922Z,7.83
2023-02-09T01:50:22.041Z,8.70
2023-02-09T01:52:52.119Z,8.73
2023-02-09T01:55:23.046Z,8.50
2023-02-09T01:57:54.439Z,8.70
2023-02-09T02:00:23.658Z,8.43
2023-02-09T02:02:54.632Z,9.80
2023-02-09T02:05:23.573Z,8.63
2023-02-09T02:07:56.717Z,8.53
2023-02-09T02:10:26.341Z,8.50
2023-02-09T02:12:55.938Z,8.70
2023-02-09T02:15:27.390Z,8.13
2023-02-09T02:18:03.273Z,8.60
2023-02-09T02:20:47.137Z,8.50
2023-02-09T02:23:21.453Z,9.10
2023-02-09T02:26:17.154Z,8.17
2023-02-09T02:28:51.491Z,9.03
2023-02-09T02:31:32.782Z,10.37
2023-02-09T02:34:04.814Z,10.60
2023-02-09T02:36:36.825Z,10.13
2023-02-09T02:39:07.121Z,10.23
2023-02-09T02:41:52.756Z,9.83
2023-02-09T02:44:21.538Z,9.83
2023-02-09T02:46:54.898Z,9.13
2023-02-09T02:49:26.659Z,9.30
2023-02-09T02:51:57.264Z,9.13
2023-02-09T02:54:27.826Z,9.10
2023-02-09T02:56:58.571Z,10.20
2023-02-09T02:59:29.130Z,9.37
2023-02-09T03:02:01.396Z,10.13
2023-02-09T03:04:30.320Z,11.27
2023-02-09T03:06:58.957Z,9.83
2023-02-09T03:09:27.577Z,9.97
2023-02-09T03:11:59.376Z,9.73
2023-02-09T03:14:36.225Z,10.83
2023-02-09T03:17:13.729Z,10.07
2023-02-09T03:19:45.209Z,9.80
2023-02-09T03:22:16.509Z,10.10
2023-02-09T03:24:48.308Z,9.77
2023-02-09T03:27:18.977Z,10.13
2023-02-09T03:29:48.383Z,9.50
2023-02-09T03:32:19.374Z,10.00
2023-02-09T03:34:48.004Z,9.50
2023-02-09T03:37:16.496Z,9.80
2023-02-09T03:39:45.073Z,9.50
2023-02-09T03:42:13.580Z,9.83
2023-02-09T03:44:42.129Z,9.50
2023-02-09T03:47:11.302Z,10.17
2023-02-09T03:49:42.013Z,9.10
2023-02-09T03:52:11.555Z,11.73
2023-02-09T03:54:39.998Z,11.97
2023-02-09T03:57:08.669Z,11.50
2023-02-09T03:59:37.816Z,12.10
2023-02-09T04:02:07.307Z,10.77
2023-02-09T04:04:35.996Z,10.80
2023-02-09T04:07:05.841Z,11.70
2023-02-09T04:09:34.620Z,10.63
2023-02-09T04:12:03.490Z,10.23
2023-02-09T04:14:32.029Z,10.73
2023-02-09T04:17:00.448Z,10.50
2023-02-09T04:19:29.261Z,10.33
2023-02-09T04:21:58.066Z,10.87
2023-02-09T04:24:30.679Z,10.50
2023-02-09T04:26:59.154Z,10.73
2023-02-09T04:29:27.878Z,11.07
2023-02-09T04:31:56.477Z,12.07
2023-02-09T04:34:25.122Z,11.77
2023-02-09T04:36:53.606Z,10.97
2023-02-09T04:39:22.213Z,11.07
2023-02-09T04:41:52.062Z,10.80
2023-02-09T04:44:20.745Z,11.77
2023-02-09T04:46:49.257Z,11.10
2023-02-09T04:49:18.062Z,10.93
2023-02-09T04:51:46.441Z,10.27
2023-02-09T04:54:14.722Z,11.53
2023-02-09T04:56:42.910Z,12.53
2023-02-09T04:59:30.553Z,12.00
2023-02-09T05:01:58.975Z,11.37
2023-02-09T05:04:27.553Z,12.40
2023-02-09T05:06:56.237Z,12.30
2023-02-09T05:09:24.872Z,11.83
2023-02-09T05:11:53.364Z,12.47
2023-02-09T05:14:23.362Z,13.47
2023-02-09T05:16:51.876Z,13.53
2023-02-09T05:19:20.414Z,14.70
2023-02-09T05:21:48.928Z,13.37
2023-02-09T05:24:17.421Z,13.20
2023-02-09T05:26:45.887Z,14.13
2023-02-09T05:29:15.541Z,14.83
2023-02-09T05:31:45.546Z,15.43
2023-02-09T05:34:14.376Z,16.30
2023-02-09T05:36:42.864Z,15.73
2023-02-09T05:39:11.566Z,15.83
2023-02-09T05:41:57.791Z,16.33
2023-02-09T05:44:27.115Z,16.83
2023-02-09T05:46:56.863Z,17.60
2023-02-09T05:49:26.014Z,18.13
2023-02-09T05:51:54.538Z,19.53
2023-02-09T05:54:23.036Z,19.07
2023-02-09T05:56:51.500Z,18.87
2023-02-09T05:59:20.079Z,18.57
2023-02-09T06:01:48.591Z,18.40
2023-02-09T06:04:18.620Z,19.77
2023-02-09T06:06:46.802Z,19.20
2023-02-09T06:09:15.011Z,20.00
2023-02-09T06:11:43.351Z,19.20
2023-02-09T06:14:11.945Z,19.00
2023-02-09T06:16:41.675Z,19.63
2023-02-09T06:19:23.142Z,21.13
2023-02-09T06:21:51.363Z,20.23
2023-02-09T06:24:19.897Z,21.83
2023-02-09T06:26:48.381Z,21.33
2023-02-09T06:29:16.894Z,21.33
2023-02-09T06:31:45.452Z,22.57
2023-02-09T06:34:14.478Z,21.67
2023-02-09T06:36:44.361Z,21.87
2023-02-09T06:39:13.064Z,23.70
2023-02-09T06:41:41.688Z,22.63
2023-02-09T06:44:11.563Z,22.40
2023-02-09T06:46:40.779Z,22.67
2023-02-09T06:49:09.289Z,23.07
2023-02-09T06:51:37.999Z,22.30
2023-02-09T06:54:10.334Z,24.33
2023-02-09T06:56:38.903Z,25.00
2023-02-09T06:59:08.960Z,23.60
2023-02-09T07:01:37.564Z,22.57
2023-02-09T07:04:06.364Z,23.13
2023-02-09T07:06:34.840Z,22.67
2023-02-09T07:09:04.512Z,24.27
2023-02-09T07:11:34.585Z,23.03
2023-02-09T07:14:03.195Z,23.40
2023-02-09T07:16:31.988Z,23.30
2023-02-09T07:19:01.790Z,23.23
2023-02-09T07:21:31.321Z,23.13
2023-02-09T07:23:59.934Z,23.23
2023-02-09T07:26:28.397Z,22.57
2023-02-09T07:28:58.395Z,22.00
2023-02-09T07:31:27.580Z,21.60
2023-02-09T07:33:56.754Z,20.87
2023-02-09T07:36:25.298Z,22.17
2023-02-09T07:38:54.086Z,20.47
2023-02-09T07:41:25.228Z,19.67
2023-02-09T07:43:54.521Z,18.23
2023-02-09T07:46:25.716Z,18.23
2023-02-09T07:48:54.165Z,17.47
2023-02-09T07:51:25.304Z,17.23
2023-02-09T07:53:54.136Z,17.93
2023-02-09T07:56:22.566Z,16.93
2023-02-09T07:58:51.350Z,16.93
2023-02-09T08:01:20.327Z,17.13
2023-02-09T08:03:51.078Z,17.27
2023-02-09T08:06:30.478Z,15.63
2023-02-09T08:09:05.525Z,16.90
2023-02-09T08:11:36.402Z,16.63
2023-02-09T08:14:06.813Z,17.03
2023-02-09T08:16:37.409Z,18.23
2023-02-09T08:19:08.862Z,19.77
2023-02-09T08:21:39.252Z,18.67
2023-02-09T08:24:08.480Z,19.77
2023-02-09T08:26:37.016Z,17.97
2023-02-09T08:29:05.778Z,19.00
2023-02-09T08:31:34.107Z,17.87
2023-02-09T08:34:02.502Z,18.50
2023-02-09T08:36:32.459Z,19.37
2023-02-09T08:39:00.828Z,19.77
2023-02-09T08:41:28.948Z,19.83
2023-02-09T08:43:57.130Z,19.90
2023-02-09T08:46:25.383Z,19.27
2023-02-09T08:48:54.585Z,18.87
2023-02-09T08:51:23.146Z,20.43
2023-02-09T08:53:53.113Z,19.90
2023-02-09T08:56:22.252Z,20.80
2023-02-09T08:58:51.618Z,19.30
2023-02-09T09:01:20.253Z,19.20
2023-02-09T09:03:49.558Z,20.10
2023-02-09T09:06:18.110Z,18.97
2023-02-09T09:08:46.394Z,20.20
2023-02-09T09:11:17.424Z,19.10
2023-02-09T09:13:46.225Z,19.50
2023-02-09T09:16:18.302Z,20.87
2023-02-09T09:18:47.026Z,21.73
2023-02-09T09:21:17.146Z,20.37
2023-02-09T09:23:45.915Z,20.80
2023-02-09T09:26:15.632Z,19.83
2023-02-09T09:28:43.938Z,21.30
2023-02-09T09:31:14.542Z,21.03
2023-02-09T09:33:43.212Z,21.03
2023-02-09T09:36:12.186Z,19.33
2023-02-09T09:38:40.877Z,19.80
2023-02-09T09:41:20.015Z,20.93
2023-02-09T09:43:48.812Z,22.23
2023-02-09T09:46:19.224Z,22.30
2023-02-09T09:48:49.538Z,22.43
2023-02-09T09:51:21.477Z,21.43
2023-02-09T09:53:51.753Z,21.83
2023-02-09T09:56:22.327Z,22.87
2023-02-09T09:58:51.730Z,22.93
2023-02-09T10:01:23.511Z,21.77
2023-02-09T10:03:51.789Z,23.33
2023-02-09T10:06:22.324Z,22.93
2023-02-09T10:08:56.029Z,26.17
2023-02-09T10:11:29.601Z,22.93
2023-02-09T10:13:58.868Z,24.90
2023-02-09T10:16:30.554Z,24.90
2023-02-09T10:19:00.502Z,21.93
2023-02-09T10:21:30.567Z,22.03
2023-02-09T10:24:13.056Z,23.03
2023-02-09T10:26:43.138Z,22.07
2023-02-09T10:29:25.690Z,21.80
2023-02-09T10:31:58.339Z,21.93
2023-02-09T10:34:30.775Z,21.43
2023-02-09T10:37:13.966Z,22.53
2023-02-09T10:39:42.528Z,22.33
2023-02-09T10:42:21.385Z,21.33
2023-02-09T10:44:51.214Z,21.33
2023-02-09T10:47:28.278Z,22.67
2023-02-09T10:50:00.680Z,21.43
2023-02-09T10:52:33.552Z,21.60
2023-02-09T10:55:03.352Z,20.53
2023-02-09T10:57:35.654Z,20.63
2023-02-09T11:00:21.824Z,22.33
2023-02-09T11:02:52.754Z,22.97
2023-02-09T11:05:33.512Z,21.43
2023-02-09T11:08:17.580Z,20.80
2023-02-09T11:10:59.842Z,21.73
2023-02-09T11:13:32.173Z,20.83
2023-02-09T11:16:38.261Z,22.93
2023-02-09T11:19:22.666Z,23.60
2023-02-09T11:22:01.043Z,22.03
2023-02-09T11:24:55.333Z,22.23
2023-02-09T11:27:39.415Z,22.30
2023-02-09T11:30:17.282Z,21.07
2023-02-09T11:32:48.004Z,21.40
2023-02-09T11:35:19.413Z,21.83
2023-02-09T11:37:51.752Z,21.57
2023-02-09T11:40:28.111Z,22.33
2023-02-09T11:43:00.819Z,24.50
2023-02-09T11:45:32.590Z,22.10
2023-02-09T11:48:04.583Z,23.87
2023-02-09T11:50:40.646Z,24.90
2023-02-09T11:53:27.313Z,24.17
2023-02-09T11:55:58.589Z,25.57
2023-02-09T11:58:37.918Z,23.10
2023-02-09T12:01:17.276Z,25.87
2023-02-09T12:04:00.266Z,23.33
2023-02-09T12:06:33.974Z,23.40
2023-02-09T12:09:11.158Z,24.73
2023-02-09T12:11:50.458Z,24.90
2023-02-09T12:14:29.058Z,24.07
2023-02-09T12:17:06.225Z,24.00
2023-02-09T12:19:37.446Z,22.63
2023-02-09T12:22:45.059Z,24.93
2023-02-09T12:25:54.619Z,25.17
2023-02-09T12:28:45.622Z,24.13
2023-02-09T12:31:20.196Z,23.93
2023-02-09T12:34:15.938Z,26.33
2023-02-09T12:37:19.997Z,25.07
2023-02-09T12:40:25.008Z,24.53
2023-02-09T12:43:29.526Z,24.90
2023-02-09T12:46:18.195Z,25.20
2023-02-09T12:49:10.088Z,26.10
2023-02-09T12:51:55.818Z,26.30
2023-02-09T12:54:33.526Z,25.00
2023-02-09T12:57:46.657Z,26.97
2023-02-09T13:00:55.958Z,26.23
2023-02-09T13:03:26.398Z,23.97
2023-02-09T13:06:01.205Z,23.30
2023-02-09T13:08:37.623Z,23.13
2023-02-09T13:11:17.759Z,23.13
2023-02-09T13:13:50.622Z,23.50
2023-02-09T13:16:51.390Z,22.97
2023-02-09T13:19:48.283Z,22.93
2023-02-09T13:22:48.393Z,23.20
2023-02-09T13:25:32.365Z,22.47
2023-02-09T13:28:17.329Z,23.47
2023-02-09T13:30:46.125Z,23.70
2023-02-09T13:33:27.825Z,23.30
2023-02-09T13:36:22.897Z,24.00
2023-02-09T13:38:54.478Z,24.57
2023-02-09T13:41:37.506Z,23.80
2023-02-09T13:44:19.680Z,24.10
2023-02-09T13:46:54.061Z,24.10
2023-02-09T13:49:24.103Z,24.47
2023-02-09T13:52:15.152Z,23.83
2023-02-09T13:54:45.207Z,23.43
2023-02-09T13:57:28.283Z,23.70
2023-02-09T13:59:58.284Z,24.67
2023-02-09T14:02:28.370Z,23.03
2023-02-09T14:05:01.245Z,23.53
2023-02-09T14:07:33.725Z,24.73
2023-02-09T14:10:11.570Z,23.37
2023-02-09T14:12:55.890Z,23.53
2023-02-09T14:15:49.793Z,21.63
2023-02-09T14:18:24.669Z,21.93
2023-02-09T14:21:19.198Z,24.47
2023-02-09T14:23:49.724Z,22.40
2023-02-09T14:26:37.808Z,22.63
2023-02-09T14:29:14.783Z,24.00
2023-02-09T14:31:46.239Z,25.60
2023-02-09T14:34:35.322Z,23.20
2023-02-09T14:37:05.766Z,23.67
2023-02-09T14:39:33.871Z,24.17
2023-02-09T14:42:17.981Z,21.90
2023-02-09T14:44:48.619Z,23.50
2023-02-09T14:47:31.952Z,22.27
2023-02-09T14:50:00.423Z,22.17
2023-02-09T14:52:31.568Z,23.07
2023-02-09T14:55:03.153Z,23.13
2023-02-09T14:57:36.218Z,24.03
2023-02-09T15:00:16.476Z,24.77
2023-02-09T15:02:45.601Z,23.53
2023-02-09T15:05:14.081Z,24.40
2023-02-09T15:07:45.770Z,24.17
2023-02-09T15:10:24.808Z,22.97
2023-02-09T15:12:54.868Z,23.13
2023-02-09T15:15:24.197Z,23.37
2023-02-09T15:17:54.308Z,23.27
2023-02-09T15:20:25.146Z,25.83
2023-02-09T15:22:53.892Z,25.97
2023-02-09T15:25:22.772Z,24.67
2023-02-09T15:27:53.824Z,25.10
2023-02-09T15:30:26.606Z,24.83
2023-02-09T15:32:55.047Z,25.27
2023-02-09T15:35:25.192Z,25.13
2023-02-09T15:37:55.848Z,25.40
2023-02-09T15:40:48.281Z,25.13
2023-02-09T15:43:36.349Z,25.97
2023-02-09T15:46:22.606Z,25.47
2023-02-09T15:48:50.771Z,26.13
2023-02-09T15:51:19.019Z,26.23
2023-02-09T15:53:47.646Z,25.10
2023-02-09T15:56:16.627Z,24.97
2023-02-09T15:58:46.371Z,27.50
2023-02-09T16:01:17.708Z,24.97
2023-02-09T16:03:46.433Z,26.97
2023-02-09T16:06:17.851Z,25.50
2023-02-09T16:08:49.022Z,26.27
2023-02-09T16:11:20.767Z,26.20
2023-02-09T16:13:49.248Z,26.60
2023-02-09T16:16:18.845Z,25.73
2023-02-09T16:18:47.754Z,25.80
2023-02-09T16:21:23.374Z,27.07
2023-02-09T16:23:52.425Z,25.17
2023-02-09T16:26:21.074Z,27.00
2023-02-09T16:28:49.256Z,29.07
2023-02-09T16:31:20.230Z,31.53
2023-02-09T16:33:50.538Z,32.90
2023-02-09T16:36:19.700Z,31.20
2023-02-09T16:38:48.179Z,33.67
2023-02-09T16:41:31.810Z,33.60
2023-02-09T16:44:00.676Z,33.87
2023-02-09T16:46:32.619Z,34.20
2023-02-09T16:49:02.498Z,33.83
2023-02-09T16:51:30.943Z,34.63
2023-02-09T16:53:59.556Z,34.40
2023-02-09T16:56:30.772Z,33.47
2023-02-09T16:58:59.211Z,35.33
2023-02-09T17:01:27.826Z,33.10
2023-02-09T17:03:58.356Z,35.77
2023-02-09T17:06:28.520Z,36.23
2023-02-09T17:08:58.867Z,36.33
2023-02-09T17:11:28.525Z,35.40
2023-02-09T17:13:57.578Z,38.27
2023-02-09T17:16:27.296Z,34.57
2023-02-09T17:18:58.116Z,37.13
2023-02-09T17:21:29.090Z,35.53
2023-02-09T17:23:58.439Z,37.93
2023-02-09T17:26:26.921Z,35.77
2023-02-09T17:28:55.900Z,36.13
2023-02-09T17:31:25.578Z,39.00
2023-02-09T17:33:55.181Z,35.73
2023-02-09T17:36:27.628Z,37.17
2023-02-09T17:38:59.686Z,36.87
2023-02-09T17:41:30.532Z,37.97
2023-02-09T17:44:17.525Z,35.50
2023-02-09T17:46:49.478Z,36.00
2023-02-09T17:49:20.612Z,38.77
2023-02-09T17:51:49.276Z,37.30
2023-02-09T17:54:20.242Z,36.97
2023-02-09T17:56:48.944Z,37.53
2023-02-09T17:59:19.908Z,38.23
2023-02-09T18:01:50.671Z,37.97
2023-02-09T18:04:20.747Z,38.37
2023-02-09T18:06:50.293Z,36.07
2023-02-09T18:09:20.089Z,37.13
2023-02-09T18:11:59.665Z,37.73
2023-02-09T18:14:28.743Z,37.47
2023-02-09T18:16:57.216Z,38.93
2023-02-09T18:19:26.122Z,38.07
2023-02-09T18:21:55.813Z,38.77
2023-02-09T18:24:26.655Z,38.40
2023-02-09T18:26:55.321Z,38.50
2023-02-09T18:29:29.100Z,37.70
2023-02-09T18:31:57.722Z,37.77
2023-02-09T18:34:26.170Z,35.27
2023-02-09T18:36:54.639Z,34.90
2023-02-09T18:39:23.215Z,38.80
2023-02-09T18:41:55.262Z,37.37
2023-02-09T18:44:28.644Z,35.77
2023-02-09T18:46:57.347Z,38.67
2023-02-09T18:49:25.870Z,38.47
2023-02-09T18:51:54.254Z,38.40
2023-02-09T18:54:22.793Z,42.77
2023-02-09T18:56:54.291Z,41.20
2023-02-09T18:59:22.777Z,41.30
2023-02-09T19:01:51.215Z,39.03
2023-02-09T19:04:19.903Z,39.77
2023-02-09T19:06:48.496Z,37.17
2023-02-09T19:09:17.168Z,40.00
2023-02-09T19:11:45.637Z,39.30
2023-02-09T19:14:33.231Z,38.20
2023-02-09T19:17:01.865Z,41.77
2023-02-09T19:19:30.381Z,40.10
2023-02-09T19:22:01.570Z,41.53
2023-02-09T19:24:30.380Z,40.17
2023-02-09T19:26:58.902Z,37.23
2023-02-09T19:29:29.002Z,39.10
2023-02-09T19:31:57.471Z,40.13
2023-02-09T19:34:26.001Z,36.47
2023-02-09T19:36:54.574Z,38.07
2023-02-09T19:39:23.212Z,36.30
2023-02-09T19:41:51.659Z,40.03
2023-02-09T19:44:20.034Z,39.53
2023-02-09T19:46:50.566Z,40.90
2023-02-09T19:49:19.254Z,38.67
2023-02-09T19:51:47.805Z,41.30
2023-02-09T19:54:16.008Z,42.47
2023-02-09T19:56:45.203Z,41.13
2023-02-09T19:59:14.140Z,42.27
2023-02-09T20:01:43.373Z,45.30
2023-02-09T20:04:14.584Z,46.03
2023-02-09T20:06:43.091Z,43.17
2023-02-09T20:09:13.681Z,42.20
2023-02-09T20:11:42.135Z,43.43
2023-02-09T20:14:11.106Z,44.53
2023-02-09T20:16:39.706Z,44.17
2023-02-09T20:19:08.564Z,44.13
2023-02-09T20:21:38.496Z,44.57
2023-02-09T20:24:10.069Z,43.83
2023-02-09T20:26:38.530Z,43.93
2023-02-09T20:29:07.805Z,43.17
2023-02-09T20:31:37.698Z,45.43
2023-02-09T20:34:07.463Z,43.03
2023-02-09T20:36:37.198Z,45.47
2023-02-09T20:39:08.078Z,40.10
2023-02-09T20:41:36.532Z,44.27
2023-02-09T20:44:22.709Z,43.53
2023-02-09T20:46:56.921Z,42.00
2023-02-09T20:49:29.480Z,45.60
2023-02-09T20:51:57.884Z,45.27
2023-02-09T20:54:27.643Z,43.50
2023-02-09T20:56:56.072Z,45.50
2023-02-09T20:59:25.181Z,45.03
2023-02-09T21:01:53.700Z,45.47
2023-02-09T21:04:22.339Z,43.27
2023-02-09T21:06:50.700Z,43.27
2023-02-09T21:09:25.438Z,47.73
2023-02-09T21:11:56.094Z,45.13
2023-02-09T21:14:41.059Z,47.43
2023-02-09T21:17:10.396Z,44.60
2023-02-09T21:19:38.837Z,43.57
2023-02-09T21:22:07.893Z,42.00
2023-02-09T21:24:36.545Z,41.47
2023-02-09T21:27:06.638Z,40.67
2023-02-09T21:29:35.729Z,38.93
2023-02-09T21:32:05.098Z,41.80
2023-02-09T21:34:33.512Z,41.73
2023-02-09T21:37:02.161Z,40.00
2023-02-09T21:39:31.634Z,42.47
2023-02-09T21:42:18.011Z,41.63
2023-02-09T21:44:48.235Z,39.93
2023-02-09T21:47:16.872Z,41.67
2023-02-09T21:49:45.266Z,42.80
2023-02-09T21:52:13.920Z,42.47
2023-02-09T21:54:42.515Z,41.23
2023-02-09T21:57:11.086Z,41.70
2023-02-09T21:59:39.846Z,42.77
2023-02-09T22:02:10.164Z,42.70
2023-02-09T22:04:39.892Z,40.67
2023-02-09T22:07:08.491Z,41.87
2023-02-09T22:09:37.144Z,43.93
2023-02-09T22:12:06.048Z,42.33
2023-02-09T22:14:34.822Z,41.70
2023-02-09T22:17:03.496Z,45.00
2023-02-09T22:19:33.626Z,42.70
2023-02-09T22:22:02.082Z,42.50
2023-02-09T22:24:34.743Z,42.33
2023-02-09T22:27:03.348Z,44.10
2023-02-09T22:29:33.314Z,41.40
2023-02-09T22:32:01.795Z,39.03
2023-02-09T22:34:30.375Z,41.90
2023-02-09T22:37:00.184Z,39.60
2023-02-09T22:39:28.625Z,45.10
2023-02-09T22:41:58.056Z,42.93
2023-02-09T22:44:28.002Z,41.00
2023-02-09T22:46:56.408Z,44.13
2023-02-09T22:49:24.979Z,39.90
2023-02-09T22:51:53.475Z,46.00
2023-02-09T22:54:23.275Z,44.00
2023-02-09T22:56:52.046Z,39.90
2023-02-09T22:59:20.463Z,42.67
2023-02-09T23:01:49.256Z,42.50
2023-02-09T23:04:17.839Z,40.07
2023-02-09T23:06:46.327Z,39.77
2023-02-09T23:09:15.363Z,41.10
2023-02-09T23:11:47.488Z,43.07
2023-02-09T23:14:16.096Z,43.07
2023-02-09T23:16:45.486Z,41.57
2023-02-09T23:19:14.886Z,38.80
2023-02-09T23:21:44.468Z,40.30
2023-02-09T23:24:13.567Z,38.70
2023-02-09T23:26:41.954Z,40.50
2023-02-09T23:29:12.435Z,40.67
2023-02-09T23:31:41.019Z,39.90
2023-02-09T23:34:09.759Z,42.60
2023-02-09T23:36:38.145Z,37.50
2023-02-09T23:39:07.496Z,38.33
2023-02-09T23:41:36.194Z,38.90
2023-02-09T23:44:04.797Z,40.00
2023-02-09T23:46:34.611Z,41.33
2023-02-09T23:49:03.055Z,39.60
2023-02-09T23:51:32.418Z,38.80
2023-02-09T23:54:02.993Z,40.47
2023-02-09T23:56:36.770Z,38.40
2023-02-09T23:59:06.154Z,39.73
